Grannis, Arkansas
Current Conditions -  °F | °C
As of 11:53 AM on Monday 26 Jan 2015 (Local Time) from KDEQ Reporting Station
Clear Clear  
Wind Chill: 56°   Ceiling: Unl
Heat Index: 56°   Visibility: 10mi
Dew Point: 35°   Wind: 8mph
Humidity: 45%   Direction: 260°W
Pressure: 30.14"   Gusts: NA
Location:  34.24°N, 94.33°W
Report Text: KDEQ 261753Z AUTO 26007KT 10SM CLR 13/02 A3014 RMK AO2 SLP203 T01330017 10133 21022 58010
Loading
Personal Weather Stations






























Interactive Weather Map New forecast layout! Learn more

10-Day Weather Forecast

Advertisements
Track Severe Weather on mobile